createdAt,value
2019-02-10T05:31:42.529Z,99.90
2019-02-10T05:34:11.621Z,99.90
2019-02-10T05:36:40.738Z,99.90
2019-02-10T05:39:09.871Z,99.90
2019-02-10T05:41:38.979Z,99.90
2019-02-10T05:44:08.091Z,99.90
2019-02-10T05:46:37.367Z,99.90
2019-02-10T05:49:06.511Z,99.90
2019-02-10T05:51:35.637Z,99.90
2019-02-10T05:54:04.815Z,99.90
2019-02-10T05:56:33.920Z,99.90
2019-02-10T05:59:03.029Z,99.90
2019-02-10T06:02:01.501Z,99.90
2019-02-10T06:04:31.832Z,99.90
2019-02-10T06:07:03.600Z,99.90
2019-02-10T06:09:32.783Z,99.90
2019-02-10T06:12:01.975Z,99.90
2019-02-10T06:14:31.082Z,99.90
2019-02-10T06:17:00.544Z,99.90
2019-02-10T06:19:29.649Z,99.90
2019-02-10T06:21:58.782Z,99.90
2019-02-10T06:24:28.077Z,99.90
2019-02-10T06:26:57.207Z,99.90
2019-02-10T06:29:26.525Z,99.90
2019-02-10T06:31:55.671Z,99.90
2019-02-10T06:34:26.660Z,99.90
2019-02-10T06:36:55.777Z,99.90
2019-02-10T06:39:24.961Z,99.90
2019-02-10T06:41:54.243Z,99.90
2019-02-10T06:44:23.395Z,99.90
2019-02-10T06:46:52.575Z,99.90
2019-02-10T06:49:21.735Z,99.90
2019-02-10T06:51:50.851Z,99.90
2019-02-10T06:54:19.971Z,99.90
2019-02-10T06:56:49.093Z,99.90
2019-02-10T06:59:29.439Z,99.90
2019-02-10T07:02:03.551Z,99.90
2019-02-10T07:04:32.959Z,99.90
2019-02-10T07:07:02.123Z,99.90
2019-02-10T07:09:31.240Z,99.90
2019-02-10T07:12:19.476Z,99.90
2019-02-10T07:14:48.586Z,99.90
2019-02-10T07:17:28.256Z,99.90
2019-02-10T07:20:23.283Z,99.90
2019-02-10T07:23:29.277Z,99.90
2019-02-10T07:26:00.039Z,99.90
2019-02-10T07:29:07.827Z,99.90
2019-02-10T07:31:47.327Z,99.90
2019-02-10T07:34:50.802Z,99.90
2019-02-10T07:37:52.033Z,99.90
2019-02-10T07:41:11.076Z,99.90
2019-02-10T07:44:11.934Z,99.90
2019-02-10T07:47:26.923Z,99.90
2019-02-10T07:50:47.267Z,99.90
2019-02-10T07:54:09.731Z,99.90
2019-02-10T07:57:06.532Z,99.90
2019-02-10T08:00:15.631Z,99.90
2019-02-10T08:03:37.876Z,99.90
2019-02-10T08:06:59.120Z,99.90
2019-02-10T08:10:02.071Z,99.90
2019-02-10T08:12:59.543Z,99.90
2019-02-10T08:15:46.277Z,99.90
2019-02-10T08:19:03.096Z,99.40
2019-02-10T08:21:44.847Z,99.30
2019-02-10T08:24:49.958Z,99.90
2019-02-10T08:27:42.487Z,99.90
2019-02-10T08:31:01.730Z,99.90
2019-02-10T08:34:18.031Z,99.90
2019-02-10T08:37:15.480Z,99.90
2019-02-10T08:40:15.358Z,99.50
2019-02-10T08:43:23.670Z,99.30
2019-02-10T08:46:13.271Z,98.70
2019-02-10T08:49:38.335Z,96.70
2019-02-10T08:52:28.240Z,95.10
2019-02-10T08:54:59.075Z,95.10
2019-02-10T08:57:28.571Z,95.30
2019-02-10T09:00:40.592Z,96.00
2019-02-10T09:03:10.850Z,96.90
2019-02-10T09:05:39.994Z,97.30
2019-02-10T09:08:09.140Z,97.70
2019-02-10T09:10:38.257Z,98.40
2019-02-10T09:13:07.637Z,98.30
2019-02-10T09:15:36.771Z,98.70
2019-02-10T09:18:59.301Z,98.30
2019-02-10T09:21:28.591Z,98.00
2019-02-10T09:23:57.691Z,97.90
2019-02-10T09:26:26.817Z,98.20
2019-02-10T09:28:55.943Z,98.10
2019-02-10T09:31:25.095Z,97.60
2019-02-10T09:33:54.232Z,97.90
2019-02-10T09:36:23.355Z,97.80
2019-02-10T09:38:52.490Z,97.70
2019-02-10T09:41:21.606Z,97.60
2019-02-10T09:44:14.577Z,97.80
2019-02-10T09:46:43.716Z,97.50
2019-02-10T09:49:12.847Z,97.80
2019-02-10T09:51:41.987Z,97.60
2019-02-10T09:54:11.133Z,97.50
2019-02-10T09:56:40.233Z,97.20
2019-02-10T09:59:09.458Z,97.10
2019-02-10T10:01:38.594Z,96.90
2019-02-10T10:04:07.711Z,96.40
2019-02-10T10:06:44.324Z,95.50
2019-02-10T10:09:19.114Z,94.90
2019-02-10T10:11:44.306Z,94.30
2019-02-10T10:14:13.442Z,94.50
2019-02-10T10:16:42.560Z,94.70
2019-02-10T10:19:11.913Z,94.80
2019-02-10T10:22:29.211Z,94.70
2019-02-10T10:24:58.471Z,94.70
2019-02-10T10:27:27.751Z,94.90
2019-02-10T10:29:57.071Z,95.30
2019-02-10T10:32:26.188Z,95.00
2019-02-10T10:34:55.293Z,95.10
2019-02-10T10:37:24.415Z,95.00
2019-02-10T10:39:54.397Z,94.40
2019-02-10T10:42:23.784Z,94.60
2019-02-10T10:44:52.939Z,93.20
2019-02-10T10:47:22.048Z,92.70
2019-02-10T10:49:51.158Z,92.60
2019-02-10T10:52:20.292Z,91.60
2019-02-10T10:54:51.345Z,90.20
2019-02-10T10:57:20.496Z,89.80
2019-02-10T10:59:49.593Z,90.00
2019-02-10T11:03:12.128Z,90.10
2019-02-10T11:05:41.299Z,90.30
2019-02-10T11:08:10.422Z,90.40
2019-02-10T11:10:39.439Z,91.40
2019-02-10T11:13:08.437Z,91.20
2019-02-10T11:15:37.672Z,91.40
2019-02-10T11:18:06.737Z,92.00
2019-02-10T11:20:35.892Z,92.40
2019-02-10T11:23:04.988Z,92.00
2019-02-10T11:25:33.919Z,92.40
2019-02-10T11:28:02.930Z,92.90
2019-02-10T11:30:31.935Z,92.40
2019-02-10T11:33:00.975Z,92.40
2019-02-10T11:35:29.977Z,92.30
2019-02-10T11:37:58.954Z,92.20
2019-02-10T11:40:27.963Z,92.70
2019-02-10T11:42:56.956Z,91.60
2019-02-10T11:45:26.117Z,91.60
2019-02-10T11:47:55.182Z,90.80
2019-02-10T11:50:24.187Z,90.70
2019-02-10T11:52:53.247Z,90.20
2019-02-10T11:55:22.326Z,91.00
2019-02-10T11:57:51.504Z,91.50
2019-02-10T12:00:20.627Z,90.00
2019-02-10T12:02:49.748Z,88.40
2019-02-10T12:05:18.791Z,89.10
2019-02-10T12:07:47.715Z,89.30
2019-02-10T12:10:16.725Z,89.80
2019-02-10T12:12:45.654Z,88.90
2019-02-10T12:15:14.728Z,88.90
2019-02-10T12:17:43.832Z,90.10
2019-02-10T12:20:14.218Z,89.20
2019-02-10T12:22:50.025Z,88.40
2019-02-10T12:25:14.057Z,88.50
2019-02-10T12:27:43.044Z,89.40
2019-02-10T12:30:13.343Z,90.20
2019-02-10T12:32:42.512Z,87.10
2019-02-10T12:35:11.613Z,89.30
2019-02-10T12:37:40.716Z,87.90
2019-02-10T12:40:11.301Z,86.60
2019-02-10T12:42:40.640Z,86.00
2019-02-10T12:45:09.858Z,86.50
2019-02-10T12:47:39.005Z,86.50
2019-02-10T12:50:09.257Z,86.70
2019-02-10T12:52:38.512Z,88.00
2019-02-10T12:55:07.726Z,90.30
2019-02-10T12:57:36.771Z,90.30
2019-02-10T13:00:07.670Z,91.40
2019-02-10T13:02:36.808Z,90.90
2019-02-10T13:05:15.081Z,89.90
2019-02-10T13:07:44.234Z,89.90
2019-02-10T13:10:18.285Z,90.60
2019-02-10T13:12:47.623Z,90.90
2019-02-10T13:15:16.698Z,91.50
2019-02-10T13:17:45.704Z,91.30
2019-02-10T13:20:16.600Z,91.30
2019-02-10T13:22:45.883Z,90.90
2019-02-10T13:25:15.038Z,90.80
2019-02-10T13:27:44.377Z,90.60
2019-02-10T13:30:13.795Z,90.70
2019-02-10T13:32:43.805Z,90.30
2019-02-10T13:35:12.486Z,90.30
2019-02-10T13:37:42.046Z,90.20
2019-02-10T13:40:16.638Z,90.20
2019-02-10T13:42:44.506Z,90.00
2019-02-10T13:45:14.104Z,90.30
2019-02-10T13:47:43.148Z,90.20
2019-02-10T13:50:13.335Z,89.70
2019-02-10T13:52:42.436Z,90.00
2019-02-10T13:55:12.426Z,89.30
2019-02-10T13:57:41.536Z,89.30
2019-02-10T14:00:13.623Z,90.20
2019-02-10T14:02:42.988Z,90.00
2019-02-10T14:05:12.458Z,88.50
2019-02-10T14:07:41.396Z,88.50
2019-02-10T14:10:11.226Z,90.20
2019-02-10T14:12:40.454Z,88.40
2019-02-10T14:15:11.417Z,89.80
2019-02-10T14:17:40.842Z,88.10
2019-02-10T14:20:12.249Z,87.20
2019-02-10T14:22:41.507Z,87.60
2019-02-10T14:25:10.689Z,86.90
2019-02-10T14:27:39.702Z,86.80
2019-02-10T14:30:10.518Z,87.20
2019-02-10T14:32:39.739Z,88.20
2019-02-10T14:35:09.173Z,88.90
2019-02-10T14:37:38.201Z,89.30
2019-02-10T14:40:07.359Z,89.90
2019-02-10T14:42:36.360Z,89.90
2019-02-10T14:45:06.193Z,90.10
2019-02-10T14:47:35.339Z,89.50
2019-02-10T14:50:05.103Z,89.40
2019-02-10T14:52:34.051Z,89.30
2019-02-10T14:55:03.029Z,90.20
2019-02-10T14:57:31.952Z,90.00
2019-02-10T15:00:00.954Z,90.30
2019-02-10T15:02:29.945Z,91.00
2019-02-10T15:04:58.891Z,90.80
2019-02-10T15:07:27.981Z,91.60
2019-02-10T15:09:56.965Z,91.10
2019-02-10T15:12:26.035Z,91.50
2019-02-10T15:14:55.089Z,93.20
2019-02-10T15:17:24.144Z,93.30
2019-02-10T15:19:53.219Z,91.90
2019-02-10T15:22:22.213Z,92.40
2019-02-10T15:24:51.208Z,92.80
2019-02-10T15:27:20.291Z,93.50
2019-02-10T15:29:49.262Z,93.90
2019-02-10T15:32:18.385Z,93.10
2019-02-10T15:34:47.457Z,93.60
2019-02-10T15:37:16.487Z,93.40
2019-02-10T15:39:45.519Z,93.90
2019-02-10T15:42:14.455Z,94.00
2019-02-10T15:44:43.593Z,93.70
2019-02-10T15:47:12.589Z,93.90
2019-02-10T15:49:41.502Z,94.10
2019-02-10T15:52:10.451Z,94.80
2019-02-10T15:54:39.539Z,94.80
2019-02-10T15:57:08.613Z,95.40
2019-02-10T15:59:37.645Z,96.40
2019-02-10T16:02:06.573Z,96.90
2019-02-10T16:04:35.527Z,97.20
2019-02-10T16:07:04.642Z,96.10
2019-02-10T16:09:33.685Z,96.70
2019-02-10T16:12:03.187Z,96.10
2019-02-10T16:14:34.038Z,96.40
2019-02-10T16:17:03.470Z,95.90
2019-02-10T16:19:33.959Z,96.40
2019-02-10T16:22:03.818Z,96.40
2019-02-10T16:24:33.429Z,97.20
2019-02-10T16:27:03.142Z,96.60
2019-02-10T16:29:34.155Z,96.10
2019-02-10T16:32:03.710Z,95.90
2019-02-10T16:34:35.100Z,95.70
2019-02-10T16:37:05.052Z,95.80
2019-02-10T16:39:35.527Z,95.60
2019-02-10T16:42:05.090Z,95.20
2019-02-10T16:44:34.575Z,95.00
2019-02-10T16:47:04.081Z,94.10
2019-02-10T16:49:33.129Z,93.80
2019-02-10T16:52:02.125Z,93.30
2019-02-10T16:54:31.219Z,93.30
2019-02-10T16:57:00.133Z,93.10
2019-02-10T16:59:29.347Z,93.00
2019-02-10T17:01:58.410Z,93.40
2019-02-10T17:04:27.483Z,93.80
2019-02-10T17:06:56.515Z,93.70
2019-02-10T17:09:25.759Z,94.00
2019-02-10T17:11:55.236Z,94.30
2019-02-10T17:14:24.727Z,94.60
2019-02-10T17:16:54.246Z,95.00
2019-02-10T17:19:24.880Z,95.20
2019-02-10T17:21:54.534Z,95.40
2019-02-10T17:24:24.018Z,95.70
2019-02-10T17:26:53.799Z,95.70
2019-02-10T17:29:24.596Z,95.90
2019-02-10T17:31:54.246Z,96.70
2019-02-10T17:34:23.538Z,96.40
2019-02-10T17:36:53.388Z,97.10
2019-02-10T17:39:24.128Z,97.00
2019-02-10T17:41:53.200Z,97.50
2019-02-10T17:44:22.130Z,97.70
2019-02-10T17:46:51.134Z,97.80
2019-02-10T17:49:20.216Z,98.00
2019-02-10T17:51:49.185Z,98.30
2019-02-10T17:54:18.192Z,98.60
2019-02-10T17:56:47.320Z,98.90
2019-02-10T17:59:16.314Z,99.00
2019-02-10T18:01:45.327Z,99.90
2019-02-10T18:04:14.410Z,99.90
2019-02-10T18:06:43.543Z,99.90
2019-02-10T18:09:12.758Z,99.90
2019-02-10T18:11:41.806Z,99.90
2019-02-10T18:14:26.584Z,99.90
2019-02-10T18:17:21.091Z,99.90
2019-02-10T18:20:09.564Z,99.90
2019-02-10T18:22:57.611Z,99.90
2019-02-10T18:25:43.094Z,99.90
2019-02-10T18:28:25.650Z,99.90
2019-02-10T18:31:13.757Z,99.90
2019-02-10T18:34:13.802Z,99.90
2019-02-10T18:37:01.855Z,99.90
2019-02-10T18:39:49.853Z,99.90
2019-02-10T18:42:36.674Z,99.90
2019-02-10T18:45:27.098Z,99.90
2019-02-10T18:48:10.339Z,99.90
2019-02-10T18:50:58.426Z,99.90
2019-02-10T18:53:46.593Z,99.90
2019-02-10T18:56:50.118Z,99.90
2019-02-10T18:59:26.010Z,99.90
2019-02-10T19:02:01.390Z,99.90
2019-02-10T19:04:54.461Z,99.90
2019-02-10T19:07:39.210Z,99.90
2019-02-10T19:10:30.575Z,99.90
2019-02-10T19:13:06.199Z,99.90
2019-02-10T19:15:43.732Z,99.90
2019-02-10T19:18:21.413Z,99.90
2019-02-10T19:20:59.627Z,99.90
2019-02-10T19:23:47.709Z,99.90
2019-02-10T19:26:35.789Z,99.90
2019-02-10T19:29:25.530Z,99.90
2019-02-10T19:32:00.715Z,99.90
2019-02-10T19:34:48.769Z,99.90
2019-02-10T19:37:45.346Z,99.90
2019-02-10T19:40:46.433Z,99.90
2019-02-10T19:43:40.728Z,99.90
2019-02-10T19:46:35.026Z,99.90
2019-02-10T19:49:29.336Z,99.90
2019-02-10T19:52:09.202Z,99.90
2019-02-10T19:55:09.156Z,99.90
2019-02-10T19:58:03.411Z,99.90
2019-02-10T20:00:56.003Z,99.90
2019-02-10T20:03:42.988Z,99.90
2019-02-10T20:06:43.467Z,99.90
2019-02-10T20:09:23.048Z,99.90
2019-02-10T20:12:17.065Z,99.90
2019-02-10T20:15:20.294Z,99.90
2019-02-10T20:18:23.658Z,99.90
2019-02-10T20:21:23.747Z,99.90
2019-02-10T20:24:14.370Z,99.90
2019-02-10T20:27:02.639Z,99.90
2019-02-10T20:29:43.732Z,99.90
2019-02-10T20:32:30.783Z,99.90
2019-02-10T20:35:30.664Z,99.90
2019-02-10T20:38:13.090Z,99.90
2019-02-10T20:41:07.263Z,99.90
2019-02-10T20:44:04.391Z,99.90
2019-02-10T20:46:52.606Z,99.90
2019-02-10T20:49:39.735Z,99.90
2019-02-10T20:52:30.678Z,99.90
2019-02-10T20:55:21.723Z,99.90
2019-02-10T20:57:56.230Z,99.90
2019-02-10T21:00:36.274Z,99.90
2019-02-10T21:03:30.388Z,99.90
2019-02-10T21:06:08.380Z,99.90
2019-02-10T21:08:51.990Z,99.90
2019-02-10T21:11:42.901Z,99.90
2019-02-10T21:14:22.268Z,99.90
2019-02-10T21:17:13.395Z,99.90
2019-02-10T21:20:00.370Z,99.90
2019-02-10T21:22:46.911Z,99.90
2019-02-10T21:25:37.562Z,99.90
2019-02-10T21:28:28.651Z,99.90
2019-02-10T21:31:16.487Z,99.90
2019-02-10T21:34:03.716Z,99.90
2019-02-10T21:36:44.150Z,99.90
2019-02-10T21:39:32.324Z,99.90
2019-02-10T21:42:09.720Z,99.90
2019-02-10T21:44:58.163Z,99.90
2019-02-10T21:47:37.104Z,99.90
2019-02-10T21:50:06.300Z,99.90
2019-02-10T21:52:35.314Z,99.90
2019-02-10T21:55:04.430Z,99.90
2019-02-10T21:57:33.534Z,99.90
2019-02-10T22:00:02.519Z,99.90
2019-02-10T22:02:31.486Z,99.90
2019-02-10T22:05:00.402Z,99.90
2019-02-10T22:07:29.324Z,99.90
2019-02-10T22:09:58.270Z,99.90
2019-02-10T22:12:27.258Z,99.90
2019-02-10T22:14:56.344Z,99.90
2019-02-10T22:17:25.387Z,99.90
2019-02-10T22:19:54.370Z,99.90
2019-02-10T22:22:23.302Z,99.90
2019-02-10T22:24:52.221Z,99.90
2019-02-10T22:27:21.158Z,99.90
2019-02-10T22:29:50.252Z,99.90
2019-02-10T22:32:19.775Z,99.90
2019-02-10T22:34:48.814Z,99.90
2019-02-10T22:37:17.846Z,99.90
2019-02-10T22:39:47.092Z,99.90
2019-02-10T22:42:16.150Z,99.90
2019-02-10T22:44:45.139Z,99.90
2019-02-10T22:47:14.070Z,99.90
2019-02-10T22:49:42.978Z,99.90
2019-02-10T22:52:11.899Z,99.90
2019-02-10T22:54:40.842Z,99.90
2019-02-10T22:57:09.850Z,99.90
2019-02-10T22:59:38.830Z,99.90
2019-02-10T23:02:08.064Z,99.90
2019-02-10T23:04:37.064Z,99.90
2019-02-10T23:07:06.198Z,99.90
2019-02-10T23:09:35.161Z,99.90
2019-02-10T23:12:04.315Z,99.90
2019-02-10T23:14:33.310Z,99.90
2019-02-10T23:17:02.538Z,99.90
2019-02-10T23:19:31.477Z,99.90
2019-02-10T23:22:00.408Z,99.90
2019-02-10T23:24:29.410Z,99.90
2019-02-10T23:26:58.400Z,99.90
2019-02-10T23:29:27.321Z,99.90
